Harrison, Maine
Current Conditions -  °F | °C
As of 3:54 AM on Monday 20 Oct 2014 (Local Time) from KIZG Reporting Station
Clear Clear  
Wind Chill: 31°   Ceiling: Unl
Heat Index: 38°   Visibility: 10mi
Dew Point: 23°   Wind: 10mph
Humidity: 55%   Direction: 280°W
Pressure: 29.92"   Gusts: NA
Location:  44.11°N, 70.68°W
Report Text: KIZG 200754Z AUTO 28009KT 10SM CLR 03/M05 A2992 RMK AO2 SLP136 T00331050
Loading
Personal Weather Stations






























Interactive Weather Map New forecast layout! Learn more

10-Day Weather Forecast

Advertisements
Track Severe Weather on mobile